Aviation Digital Data Service (ADDS)

Output produced by METARs form (1501 UTC 05 July 2015)
found at http://aviationweather.gov/adds/metars/
 
KBTV 051120Z 0512/0612 22005KT P6SM FEW050 SCT090 
     FM051800 29007KT P6SM SCT050 
     FM060000 VRB03KT P6SM SKC 
     FM060900 VRB03KT 5SM BR SKC